sensor_id;sensor_type;location;lat;lon;timestamp;P1;durP1;ratioP1;P2;durP2;ratioP2
36715;SDS011;22699;51.034;3.730;2023-02-23T00:01:17;76.05;;;37.17;;
36715;SDS011;22699;51.034;3.730;2023-02-23T00:03:46;71.18;;;36.65;;
36715;SDS011;22699;51.034;3.730;2023-02-23T00:06:13;77.38;;;37.72;;
36715;SDS011;22699;51.034;3.730;2023-02-23T00:08:40;70.97;;;36.28;;
36715;SDS011;22699;51.034;3.730;2023-02-23T00:11:07;75.82;;;38.85;;
36715;SDS011;22699;51.034;3.730;2023-02-23T00:13:36;73.40;;;38.63;;
36715;SDS011;22699;51.034;3.730;2023-02-23T00:16:03;77.85;;;41.30;;
36715;SDS011;22699;51.034;3.730;2023-02-23T00:18:36;76.45;;;38.53;;
36715;SDS011;22699;51.034;3.730;2023-02-23T00:21:13;76.40;;;40.17;;
36715;SDS011;22699;51.034;3.730;2023-02-23T00:23:41;83.32;;;40.33;;
36715;SDS011;22699;51.034;3.730;2023-02-23T00:26:07;152.20;;;46.42;;
36715;SDS011;22699;51.034;3.730;2023-02-23T00:28:33;76.97;;;40.90;;
36715;SDS011;22699;51.034;3.730;2023-02-23T00:31:00;77.53;;;38.20;;
36715;SDS011;22699;51.034;3.730;2023-02-23T00:33:27;74.93;;;38.40;;
36715;SDS011;22699;51.034;3.730;2023-02-23T00:36:03;213.82;;;52.75;;
36715;SDS011;22699;51.034;3.730;2023-02-23T00:38:29;80.28;;;39.75;;
36715;SDS011;22699;51.034;3.730;2023-02-23T00:41:02;86.00;;;41.58;;
36715;SDS011;22699;51.034;3.730;2023-02-23T00:43:32;77.60;;;42.17;;
36715;SDS011;22699;51.034;3.730;2023-02-23T00:46:14;82.95;;;41.65;;
36715;SDS011;22699;51.034;3.730;2023-02-23T00:48:41;91.82;;;43.40;;
36715;SDS011;22699;51.034;3.730;2023-02-23T00:51:08;96.50;;;43.95;;
36715;SDS011;22699;51.034;3.730;2023-02-23T00:53:34;92.72;;;43.08;;
36715;SDS011;22699;51.034;3.730;2023-02-23T00:55:59;89.75;;;42.97;;
36715;SDS011;22699;51.034;3.730;2023-02-23T00:58:28;95.85;;;45.35;;
36715;SDS011;22699;51.034;3.730;2023-02-23T01:00:55;90.40;;;45.30;;
36715;SDS011;22699;51.034;3.730;2023-02-23T01:03:26;87.00;;;43.35;;
36715;SDS011;22699;51.034;3.730;2023-02-23T01:05:53;88.38;;;43.50;;
36715;SDS011;22699;51.034;3.730;2023-02-23T01:08:33;118.90;;;44.05;;
36715;SDS011;22699;51.034;3.730;2023-02-23T01:11:07;89.38;;;43.45;;
36715;SDS011;22699;51.034;3.730;2023-02-23T01:13:34;84.90;;;42.92;;
36715;SDS011;22699;51.034;3.730;2023-02-23T01:16:03;83.82;;;42.83;;
36715;SDS011;22699;51.034;3.730;2023-02-23T01:18:33;82.60;;;42.40;;
36715;SDS011;22699;51.034;3.730;2023-02-23T01:20:59;80.18;;;41.08;;
36715;SDS011;22699;51.034;3.730;2023-02-23T01:23:26;82.22;;;42.05;;
36715;SDS011;22699;51.034;3.730;2023-02-23T01:25:52;85.50;;;42.47;;
36715;SDS011;22699;51.034;3.730;2023-02-23T01:28:18;81.93;;;42.97;;
36715;SDS011;22699;51.034;3.730;2023-02-23T01:30:44;86.57;;;42.40;;
36715;SDS011;22699;51.034;3.730;2023-02-23T01:33:09;82.45;;;40.50;;
36715;SDS011;22699;51.034;3.730;2023-02-23T01:35:36;81.05;;;44.05;;
36715;SDS011;22699;51.034;3.730;2023-02-23T01:38:02;84.00;;;42.58;;
36715;SDS011;22699;51.034;3.730;2023-02-23T01:40:28;106.82;;;45.70;;
36715;SDS011;22699;51.034;3.730;2023-02-23T01:43:17;87.32;;;43.80;;
36715;SDS011;22699;51.034;3.730;2023-02-23T01:45:50;81.70;;;41.97;;
36715;SDS011;22699;51.034;3.730;2023-02-23T01:48:21;91.25;;;44.42;;
36715;SDS011;22699;51.034;3.730;2023-02-23T01:50:53;91.10;;;45.28;;
36715;SDS011;22699;51.034;3.730;2023-02-23T01:53:30;91.53;;;44.00;;
36715;SDS011;22699;51.034;3.730;2023-02-23T01:56:05;94.72;;;44.90;;
36715;SDS011;22699;51.034;3.730;2023-02-23T01:58:37;84.18;;;43.40;;
36715;SDS011;22699;51.034;3.730;2023-02-23T02:01:05;88.72;;;41.65;;
36715;SDS011;22699;51.034;3.730;2023-02-23T02:03:41;83.03;;;43.38;;
36715;SDS011;22699;51.034;3.730;2023-02-23T02:06:13;83.30;;;42.25;;
36715;SDS011;22699;51.034;3.730;2023-02-23T02:08:50;87.80;;;42.78;;
36715;SDS011;22699;51.034;3.730;2023-02-23T02:11:19;85.82;;;42.63;;
36715;SDS011;22699;51.034;3.730;2023-02-23T02:13:57;82.43;;;42.55;;
36715;SDS011;22699;51.034;3.730;2023-02-23T02:48:56;71.50;;;40.92;;
36715;SDS011;22699;51.034;3.730;2023-02-23T02:51:46;68.30;;;39.55;;
36715;SDS011;22699;51.034;3.730;2023-02-23T02:54:27;67.15;;;40.42;;
36715;SDS011;22699;51.034;3.730;2023-02-23T02:57:03;67.30;;;40.28;;
36715;SDS011;22699;51.034;3.730;2023-02-23T02:59:30;75.47;;;41.20;;
36715;SDS011;22699;51.034;3.730;2023-02-23T03:02:24;75.55;;;43.15;;
36715;SDS011;22699;51.034;3.730;2023-02-23T03:05:13;73.13;;;42.03;;
36715;SDS011;22699;51.034;3.730;2023-02-23T03:08:03;81.95;;;43.47;;
36715;SDS011;22699;51.034;3.730;2023-02-23T03:11:03;73.97;;;41.95;;
36715;SDS011;22699;51.034;3.730;2023-02-23T03:17:17;73.43;;;39.53;;
36715;SDS011;22699;51.034;3.730;2023-02-23T03:20:22;101.38;;;42.38;;
36715;SDS011;22699;51.034;3.730;2023-02-23T03:23:19;76.63;;;41.28;;
36715;SDS011;22699;51.034;3.730;2023-02-23T03:26:12;69.68;;;42.17;;
36715;SDS011;22699;51.034;3.730;2023-02-23T03:29:18;73.68;;;40.85;;
36715;SDS011;22699;51.034;3.730;2023-02-23T03:32:33;121.40;;;44.28;;
36715;SDS011;22699;51.034;3.730;2023-02-23T03:35:49;65.97;;;36.78;;
36715;SDS011;22699;51.034;3.730;2023-02-23T03:38:47;75.03;;;40.72;;
36715;SDS011;22699;51.034;3.730;2023-02-23T03:41:39;78.57;;;43.47;;
36715;SDS011;22699;51.034;3.730;2023-02-23T03:44:33;71.72;;;40.67;;
36715;SDS011;22699;51.034;3.730;2023-02-23T03:47:22;75.05;;;41.25;;
36715;SDS011;22699;51.034;3.730;2023-02-23T03:50:12;70.93;;;39.92;;
36715;SDS011;22699;51.034;3.730;2023-02-23T03:53:01;72.53;;;41.22;;
36715;SDS011;22699;51.034;3.730;2023-02-23T03:55:48;68.07;;;39.25;;
36715;SDS011;22699;51.034;3.730;2023-02-23T03:58:38;71.60;;;40.03;;
36715;SDS011;22699;51.034;3.730;2023-02-23T04:01:27;61.70;;;37.23;;
36715;SDS011;22699;51.034;3.730;2023-02-23T04:04:13;63.67;;;36.35;;
36715;SDS011;22699;51.034;3.730;2023-02-23T04:06:58;70.15;;;38.20;;
36715;SDS011;22699;51.034;3.730;2023-02-23T04:09:44;67.68;;;38.75;;
36715;SDS011;22699;51.034;3.730;2023-02-23T04:12:33;66.60;;;37.00;;
36715;SDS011;22699;51.034;3.730;2023-02-23T04:15:26;74.72;;;38.88;;
36715;SDS011;22699;51.034;3.730;2023-02-23T04:17:56;71.05;;;38.03;;
36715;SDS011;22699;51.034;3.730;2023-02-23T04:20:23;75.40;;;39.95;;
36715;SDS011;22699;51.034;3.730;2023-02-23T04:22:49;74.05;;;40.80;;
36715;SDS011;22699;51.034;3.730;2023-02-23T04:25:15;78.97;;;40.45;;
36715;SDS011;22699;51.034;3.730;2023-02-23T04:27:47;81.35;;;41.60;;
36715;SDS011;22699;51.034;3.730;2023-02-23T04:30:13;82.90;;;42.85;;
36715;SDS011;22699;51.034;3.730;2023-02-23T04:32:39;73.45;;;41.10;;
36715;SDS011;22699;51.034;3.730;2023-02-23T04:35:05;84.35;;;42.35;;
36715;SDS011;22699;51.034;3.730;2023-02-23T04:37:31;79.10;;;41.97;;
36715;SDS011;22699;51.034;3.730;2023-02-23T04:39:56;79.00;;;41.08;;
36715;SDS011;22699;51.034;3.730;2023-02-23T04:42:22;384.38;;;65.32;;
36715;SDS011;22699;51.034;3.730;2023-02-23T04:44:48;77.88;;;39.47;;
36715;SDS011;22699;51.034;3.730;2023-02-23T04:47:14;74.97;;;40.85;;
36715;SDS011;22699;51.034;3.730;2023-02-23T04:49:40;74.75;;;39.33;;
36715;SDS011;22699;51.034;3.730;2023-02-23T04:52:06;111.47;;;43.20;;
36715;SDS011;22699;51.034;3.730;2023-02-23T04:54:32;73.68;;;39.13;;
36715;SDS011;22699;51.034;3.730;2023-02-23T04:56:58;70.80;;;38.60;;
36715;SDS011;22699;51.034;3.730;2023-02-23T04:59:23;72.05;;;39.60;;
36715;SDS011;22699;51.034;3.730;2023-02-23T05:01:49;66.45;;;36.83;;
36715;SDS011;22699;51.034;3.730;2023-02-23T05:04:14;69.80;;;39.45;;
36715;SDS011;22699;51.034;3.730;2023-02-23T05:06:40;74.70;;;41.55;;
36715;SDS011;22699;51.034;3.730;2023-02-23T05:09:06;72.93;;;41.08;;
36715;SDS011;22699;51.034;3.730;2023-02-23T05:11:32;70.88;;;40.90;;
36715;SDS011;22699;51.034;3.730;2023-02-23T05:13:58;74.65;;;41.20;;
36715;SDS011;22699;51.034;3.730;2023-02-23T05:16:23;83.55;;;42.08;;
36715;SDS011;22699;51.034;3.730;2023-02-23T05:18:50;80.32;;;43.15;;
36715;SDS011;22699;51.034;3.730;2023-02-23T05:21:16;82.30;;;42.45;;
36715;SDS011;22699;51.034;3.730;2023-02-23T05:23:41;83.40;;;44.67;;
36715;SDS011;22699;51.034;3.730;2023-02-23T05:26:09;84.82;;;43.10;;
36715;SDS011;22699;51.034;3.730;2023-02-23T05:28:36;86.30;;;44.60;;
36715;SDS011;22699;51.034;3.730;2023-02-23T05:31:03;81.85;;;42.78;;
36715;SDS011;22699;51.034;3.730;2023-02-23T05:33:30;89.03;;;45.95;;
36715;SDS011;22699;51.034;3.730;2023-02-23T05:35:57;94.85;;;47.28;;
36715;SDS011;22699;51.034;3.730;2023-02-23T05:38:22;89.13;;;44.40;;
36715;SDS011;22699;51.034;3.730;2023-02-23T05:40:48;78.10;;;40.78;;
36715;SDS011;22699;51.034;3.730;2023-02-23T05:43:14;81.28;;;42.35;;
36715;SDS011;22699;51.034;3.730;2023-02-23T05:45:40;86.95;;;44.05;;
36715;SDS011;22699;51.034;3.730;2023-02-23T05:48:07;76.50;;;42.50;;
36715;SDS011;22699;51.034;3.730;2023-02-23T05:50:33;80.45;;;42.13;;
36715;SDS011;22699;51.034;3.730;2023-02-23T05:52:59;82.50;;;43.50;;
36715;SDS011;22699;51.034;3.730;2023-02-23T05:55:25;264.63;;;58.35;;
36715;SDS011;22699;51.034;3.730;2023-02-23T05:57:51;87.68;;;45.38;;
36715;SDS011;22699;51.034;3.730;2023-02-23T06:00:17;83.70;;;45.00;;
36715;SDS011;22699;51.034;3.730;2023-02-23T06:02:43;89.70;;;44.08;;
36715;SDS011;22699;51.034;3.730;2023-02-23T06:05:09;89.85;;;43.25;;
36715;SDS011;22699;51.034;3.730;2023-02-23T06:07:35;83.75;;;40.97;;
36715;SDS011;22699;51.034;3.730;2023-02-23T06:10:01;79.57;;;42.30;;
36715;SDS011;22699;51.034;3.730;2023-02-23T06:12:27;80.03;;;41.70;;
36715;SDS011;22699;51.034;3.730;2023-02-23T06:14:55;83.03;;;42.40;;
36715;SDS011;22699;51.034;3.730;2023-02-23T06:17:21;82.47;;;40.28;;
36715;SDS011;22699;51.034;3.730;2023-02-23T06:19:48;83.88;;;43.47;;
36715;SDS011;22699;51.034;3.730;2023-02-23T06:22:14;78.30;;;41.25;;
36715;SDS011;22699;51.034;3.730;2023-02-23T06:24:41;87.18;;;42.25;;
36715;SDS011;22699;51.034;3.730;2023-02-23T06:27:07;77.78;;;43.13;;
36715;SDS011;22699;51.034;3.730;2023-02-23T06:29:33;85.35;;;42.95;;
36715;SDS011;22699;51.034;3.730;2023-02-23T06:31:58;80.20;;;40.53;;
36715;SDS011;22699;51.034;3.730;2023-02-23T06:34:24;75.13;;;41.22;;
36715;SDS011;22699;51.034;3.730;2023-02-23T06:36:50;75.05;;;41.97;;
36715;SDS011;22699;51.034;3.730;2023-02-23T06:39:16;73.22;;;40.63;;
36715;SDS011;22699;51.034;3.730;2023-02-23T06:41:42;75.05;;;40.08;;
36715;SDS011;22699;51.034;3.730;2023-02-23T06:44:07;76.03;;;40.45;;
36715;SDS011;22699;51.034;3.730;2023-02-23T06:46:33;78.95;;;41.33;;
36715;SDS011;22699;51.034;3.730;2023-02-23T06:49:00;74.78;;;40.33;;
36715;SDS011;22699;51.034;3.730;2023-02-23T06:51:25;77.10;;;40.90;;
36715;SDS011;22699;51.034;3.730;2023-02-23T06:53:51;78.35;;;40.38;;
36715;SDS011;22699;51.034;3.730;2023-02-23T06:56:17;82.90;;;40.53;;
36715;SDS011;22699;51.034;3.730;2023-02-23T06:58:43;80.97;;;41.30;;
36715;SDS011;22699;51.034;3.730;2023-02-23T07:01:12;79.32;;;42.72;;
36715;SDS011;22699;51.034;3.730;2023-02-23T07:03:38;80.15;;;43.03;;
36715;SDS011;22699;51.034;3.730;2023-02-23T07:06:05;76.75;;;43.13;;
36715;SDS011;22699;51.034;3.730;2023-02-23T07:08:31;76.90;;;43.42;;
36715;SDS011;22699;51.034;3.730;2023-02-23T07:11:07;79.20;;;40.67;;
36715;SDS011;22699;51.034;3.730;2023-02-23T07:13:35;72.10;;;39.38;;
36715;SDS011;22699;51.034;3.730;2023-02-23T07:16:01;79.00;;;42.20;;
36715;SDS011;22699;51.034;3.730;2023-02-23T07:18:27;72.97;;;41.45;;
36715;SDS011;22699;51.034;3.730;2023-02-23T07:20:53;78.45;;;43.25;;
36715;SDS011;22699;51.034;3.730;2023-02-23T07:23:19;82.25;;;45.53;;
36715;SDS011;22699;51.034;3.730;2023-02-23T07:25:46;73.80;;;42.05;;
36715;SDS011;22699;51.034;3.730;2023-02-23T07:28:14;73.85;;;41.83;;
36715;SDS011;22699;51.034;3.730;2023-02-23T07:30:40;67.50;;;40.47;;
36715;SDS011;22699;51.034;3.730;2023-02-23T07:33:06;79.03;;;44.13;;
36715;SDS011;22699;51.034;3.730;2023-02-23T07:35:31;77.57;;;43.95;;
36715;SDS011;22699;51.034;3.730;2023-02-23T07:37:57;77.90;;;40.13;;
36715;SDS011;22699;51.034;3.730;2023-02-23T07:40:23;82.45;;;44.47;;
36715;SDS011;22699;51.034;3.730;2023-02-23T07:42:49;75.90;;;44.05;;
36715;SDS011;22699;51.034;3.730;2023-02-23T07:45:15;69.28;;;43.33;;
36715;SDS011;22699;51.034;3.730;2023-02-23T07:47:41;74.05;;;43.17;;
36715;SDS011;22699;51.034;3.730;2023-02-23T07:50:08;74.03;;;43.50;;
36715;SDS011;22699;51.034;3.730;2023-02-23T07:52:37;65.47;;;41.20;;
36715;SDS011;22699;51.034;3.730;2023-02-23T07:55:05;76.97;;;43.78;;
36715;SDS011;22699;51.034;3.730;2023-02-23T07:57:32;63.08;;;38.40;;
36715;SDS011;22699;51.034;3.730;2023-02-23T07:59:58;72.47;;;39.03;;
36715;SDS011;22699;51.034;3.730;2023-02-23T08:02:24;65.35;;;39.63;;
36715;SDS011;22699;51.034;3.730;2023-02-23T08:04:49;70.72;;;37.70;;
36715;SDS011;22699;51.034;3.730;2023-02-23T08:07:18;78.53;;;43.60;;
36715;SDS011;22699;51.034;3.730;2023-02-23T08:09:44;71.97;;;40.67;;
36715;SDS011;22699;51.034;3.730;2023-02-23T08:12:10;71.68;;;40.65;;
36715;SDS011;22699;51.034;3.730;2023-02-23T08:14:35;71.45;;;41.75;;
36715;SDS011;22699;51.034;3.730;2023-02-23T08:17:01;65.03;;;39.95;;
36715;SDS011;22699;51.034;3.730;2023-02-23T08:19:27;78.95;;;40.85;;
36715;SDS011;22699;51.034;3.730;2023-02-23T08:21:53;70.63;;;40.03;;
36715;SDS011;22699;51.034;3.730;2023-02-23T08:24:24;64.72;;;40.00;;
36715;SDS011;22699;51.034;3.730;2023-02-23T08:26:50;70.90;;;41.53;;
36715;SDS011;22699;51.034;3.730;2023-02-23T08:29:16;71.88;;;42.53;;
36715;SDS011;22699;51.034;3.730;2023-02-23T08:31:43;71.82;;;40.20;;
36715;SDS011;22699;51.034;3.730;2023-02-23T08:34:12;65.45;;;38.80;;
36715;SDS011;22699;51.034;3.730;2023-02-23T08:36:38;68.43;;;39.28;;
36715;SDS011;22699;51.034;3.730;2023-02-23T08:39:05;72.18;;;42.50;;
36715;SDS011;22699;51.034;3.730;2023-02-23T08:41:32;66.22;;;39.60;;
36715;SDS011;22699;51.034;3.730;2023-02-23T08:43:58;69.40;;;41.97;;
36715;SDS011;22699;51.034;3.730;2023-02-23T08:46:23;63.63;;;40.20;;
36715;SDS011;22699;51.034;3.730;2023-02-23T08:48:49;68.72;;;42.03;;
36715;SDS011;22699;51.034;3.730;2023-02-23T08:51:15;60.33;;;38.67;;
36715;SDS011;22699;51.034;3.730;2023-02-23T08:53:41;67.55;;;39.75;;
36715;SDS011;22699;51.034;3.730;2023-02-23T08:56:07;67.28;;;39.33;;
36715;SDS011;22699;51.034;3.730;2023-02-23T08:58:34;62.25;;;38.90;;
36715;SDS011;22699;51.034;3.730;2023-02-23T09:01:01;61.85;;;37.63;;
36715;SDS011;22699;51.034;3.730;2023-02-23T09:03:27;61.85;;;37.47;;
36715;SDS011;22699;51.034;3.730;2023-02-23T09:05:58;59.77;;;38.33;;
36715;SDS011;22699;51.034;3.730;2023-02-23T09:08:31;59.00;;;37.17;;
36715;SDS011;22699;51.034;3.730;2023-02-23T09:10:56;61.60;;;35.80;;
36715;SDS011;22699;51.034;3.730;2023-02-23T09:13:22;57.97;;;36.13;;
36715;SDS011;22699;51.034;3.730;2023-02-23T09:15:47;61.55;;;38.42;;
36715;SDS011;22699;51.034;3.730;2023-02-23T09:18:13;56.53;;;36.03;;
36715;SDS011;22699;51.034;3.730;2023-02-23T09:20:43;57.45;;;33.25;;
36715;SDS011;22699;51.034;3.730;2023-02-23T09:23:10;52.95;;;33.28;;
36715;SDS011;22699;51.034;3.730;2023-02-23T09:25:43;61.53;;;36.28;;
36715;SDS011;22699;51.034;3.730;2023-02-23T09:28:13;59.00;;;37.78;;
36715;SDS011;22699;51.034;3.730;2023-02-23T09:30:40;59.15;;;35.28;;
36715;SDS011;22699;51.034;3.730;2023-02-23T09:33:07;54.60;;;34.58;;
36715;SDS011;22699;51.034;3.730;2023-02-23T09:35:33;59.75;;;36.05;;
36715;SDS011;22699;51.034;3.730;2023-02-23T09:38:00;59.22;;;35.45;;
36715;SDS011;22699;51.034;3.730;2023-02-23T09:40:28;60.08;;;37.05;;
36715;SDS011;22699;51.034;3.730;2023-02-23T09:48:16;55.05;;;35.40;;
36715;SDS011;22699;51.034;3.730;2023-02-23T09:50:48;61.50;;;36.92;;
36715;SDS011;22699;51.034;3.730;2023-02-23T09:53:20;62.33;;;38.27;;
36715;SDS011;22699;51.034;3.730;2023-02-23T09:55:54;71.63;;;39.50;;
36715;SDS011;22699;51.034;3.730;2023-02-23T10:03:30;60.33;;;36.47;;
36715;SDS011;22699;51.034;3.730;2023-02-23T10:06:03;66.95;;;36.80;;
36715;SDS011;22699;51.034;3.730;2023-02-23T10:08:43;78.70;;;39.35;;
36715;SDS011;22699;51.034;3.730;2023-02-23T10:14:07;76.95;;;40.92;;
36715;SDS011;22699;51.034;3.730;2023-02-23T10:22:26;75.88;;;40.15;;
36715;SDS011;22699;51.034;3.730;2023-02-23T10:24:54;67.70;;;37.25;;
36715;SDS011;22699;51.034;3.730;2023-02-23T10:27:36;69.75;;;37.80;;
36715;SDS011;22699;51.034;3.730;2023-02-23T10:30:13;76.70;;;38.28;;
36715;SDS011;22699;51.034;3.730;2023-02-23T10:35:51;76.43;;;43.08;;
36715;SDS011;22699;51.034;3.730;2023-02-23T10:38:21;71.13;;;39.53;;
36715;SDS011;22699;51.034;3.730;2023-02-23T10:40:49;64.35;;;37.85;;
36715;SDS011;22699;51.034;3.730;2023-02-23T10:43:18;72.07;;;40.70;;
36715;SDS011;22699;51.034;3.730;2023-02-23T10:45:45;68.63;;;36.33;;
36715;SDS011;22699;51.034;3.730;2023-02-23T10:48:22;68.28;;;37.60;;
36715;SDS011;22699;51.034;3.730;2023-02-23T10:50:51;63.60;;;38.92;;
36715;SDS011;22699;51.034;3.730;2023-02-23T10:53:23;71.05;;;42.95;;
36715;SDS011;22699;51.034;3.730;2023-02-23T10:58:40;69.40;;;38.60;;
36715;SDS011;22699;51.034;3.730;2023-02-23T11:01:40;64.85;;;38.60;;
36715;SDS011;22699;51.034;3.730;2023-02-23T11:04:25;59.05;;;36.38;;
36715;SDS011;22699;51.034;3.730;2023-02-23T11:07:07;64.18;;;38.10;;
36715;SDS011;22699;51.034;3.730;2023-02-23T11:09:41;62.55;;;37.00;;
36715;SDS011;22699;51.034;3.730;2023-02-23T11:17:58;60.42;;;32.85;;
36715;SDS011;22699;51.034;3.730;2023-02-23T11:25:46;59.22;;;32.35;;
36715;SDS011;22699;51.034;3.730;2023-02-23T11:28:19;55.50;;;32.75;;
36715;SDS011;22699;51.034;3.730;2023-02-23T11:30:56;58.83;;;33.47;;
36715;SDS011;22699;51.034;3.730;2023-02-23T11:33:27;63.38;;;36.70;;
36715;SDS011;22699;51.034;3.730;2023-02-23T11:36:12;57.65;;;34.47;;
36715;SDS011;22699;51.034;3.730;2023-02-23T11:41:41;63.55;;;36.50;;
36715;SDS011;22699;51.034;3.730;2023-02-23T11:44:08;62.88;;;35.35;;
36715;SDS011;22699;51.034;3.730;2023-02-23T11:46:43;62.72;;;35.92;;
36715;SDS011;22699;51.034;3.730;2023-02-23T11:49:13;60.85;;;34.90;;
36715;SDS011;22699;51.034;3.730;2023-02-23T11:51:48;59.83;;;33.85;;
36715;SDS011;22699;51.034;3.730;2023-02-23T11:54:19;59.40;;;36.00;;
36715;SDS011;22699;51.034;3.730;2023-02-23T11:56:53;55.17;;;32.85;;
36715;SDS011;22699;51.034;3.730;2023-02-23T11:59:29;57.33;;;32.95;;
36715;SDS011;22699;51.034;3.730;2023-02-23T12:02:19;58.35;;;31.92;;
36715;SDS011;22699;51.034;3.730;2023-02-23T12:08:00;54.08;;;32.17;;
36715;SDS011;22699;51.034;3.730;2023-02-23T12:10:37;52.28;;;29.67;;
36715;SDS011;22699;51.034;3.730;2023-02-23T12:15:48;55.53;;;30.83;;
36715;SDS011;22699;51.034;3.730;2023-02-23T12:23:49;49.63;;;29.83;;
36715;SDS011;22699;51.034;3.730;2023-02-23T12:26:25;49.38;;;29.95;;
36715;SDS011;22699;51.034;3.730;2023-02-23T12:28:57;51.40;;;29.17;;
36715;SDS011;22699;51.034;3.730;2023-02-23T12:34:38;45.42;;;27.40;;
36715;SDS011;22699;51.034;3.730;2023-02-23T12:40:04;44.35;;;26.92;;
36715;SDS011;22699;51.034;3.730;2023-02-23T12:48:07;41.60;;;26.55;;
36715;SDS011;22699;51.034;3.730;2023-02-23T12:51:03;43.50;;;25.08;;
36715;SDS011;22699;51.034;3.730;2023-02-23T12:53:40;40.42;;;22.85;;
36715;SDS011;22699;51.034;3.730;2023-02-23T13:12:40;38.85;;;23.67;;
36715;SDS011;22699;51.034;3.730;2023-02-23T13:15:17;36.17;;;22.80;;
36715;SDS011;22699;51.034;3.730;2023-02-23T13:20:51;40.25;;;23.25;;
36715;SDS011;22699;51.034;3.730;2023-02-23T13:24:09;37.53;;;23.17;;
36715;SDS011;22699;51.034;3.730;2023-02-23T13:29:48;34.70;;;21.60;;
36715;SDS011;22699;51.034;3.730;2023-02-23T13:31:51;35.85;;;22.33;;
36715;SDS011;22699;51.034;3.730;2023-02-23T13:34:28;35.22;;;22.75;;
36715;SDS011;22699;51.034;3.730;2023-02-23T13:36:58;27.40;;;17.95;;
36715;SDS011;22699;51.034;3.730;2023-02-23T13:39:29;30.73;;;19.27;;
36715;SDS011;22699;51.034;3.730;2023-02-23T13:42:26;29.25;;;18.60;;
36715;SDS011;22699;51.034;3.730;2023-02-23T13:50:41;24.65;;;16.90;;
36715;SDS011;22699;51.034;3.730;2023-02-23T13:56:24;29.17;;;18.85;;
36715;SDS011;22699;51.034;3.730;2023-02-23T13:58:53;29.88;;;17.88;;
36715;SDS011;22699;51.034;3.730;2023-02-23T14:01:31;29.38;;;18.92;;
36715;SDS011;22699;51.034;3.730;2023-02-23T14:04:00;30.98;;;18.63;;
36715;SDS011;22699;51.034;3.730;2023-02-23T14:09:08;28.00;;;18.87;;
36715;SDS011;22699;51.034;3.730;2023-02-23T14:11:41;25.55;;;16.63;;
36715;SDS011;22699;51.034;3.730;2023-02-23T14:19:40;28.73;;;18.10;;
36715;SDS011;22699;51.034;3.730;2023-02-23T14:22:17;26.52;;;19.08;;
36715;SDS011;22699;51.034;3.730;2023-02-23T14:24:46;25.52;;;17.10;;
36715;SDS011;22699;51.034;3.730;2023-02-23T14:27:33;27.00;;;17.95;;
36715;SDS011;22699;51.034;3.730;2023-02-23T14:32:45;24.77;;;17.27;;
36715;SDS011;22699;51.034;3.730;2023-02-23T14:35:35;30.35;;;18.95;;
36715;SDS011;22699;51.034;3.730;2023-02-23T14:38:03;27.85;;;17.88;;
36715;SDS011;22699;51.034;3.730;2023-02-23T14:40:47;23.65;;;15.63;;
36715;SDS011;22699;51.034;3.730;2023-02-23T14:46:02;24.05;;;16.95;;
36715;SDS011;22699;51.034;3.730;2023-02-23T14:48:38;27.98;;;16.65;;
36715;SDS011;22699;51.034;3.730;2023-02-23T14:51:11;24.27;;;16.98;;
36715;SDS011;22699;51.034;3.730;2023-02-23T14:53:40;21.45;;;15.25;;
36715;SDS011;22699;51.034;3.730;2023-02-23T14:56:15;21.30;;;15.48;;
36715;SDS011;22699;51.034;3.730;2023-02-23T14:58:42;23.02;;;15.60;;
36715;SDS011;22699;51.034;3.730;2023-02-23T15:04:25;20.67;;;14.03;;
36715;SDS011;22699;51.034;3.730;2023-02-23T15:06:54;17.05;;;12.80;;
36715;SDS011;22699;51.034;3.730;2023-02-23T15:09:34;16.67;;;12.15;;
36715;SDS011;22699;51.034;3.730;2023-02-23T15:15:11;16.77;;;11.80;;
36715;SDS011;22699;51.034;3.730;2023-02-23T15:17:43;15.98;;;11.00;;
36715;SDS011;22699;51.034;3.730;2023-02-23T15:20:16;23.30;;;16.13;;
36715;SDS011;22699;51.034;3.730;2023-02-23T15:22:47;33.90;;;22.38;;
36715;SDS011;22699;51.034;3.730;2023-02-23T15:25:21;20.40;;;13.80;;
36715;SDS011;22699;51.034;3.730;2023-02-23T15:28:23;16.60;;;13.45;;
36715;SDS011;22699;51.034;3.730;2023-02-23T15:30:53;18.45;;;13.20;;
36715;SDS011;22699;51.034;3.730;2023-02-23T15:33:21;19.13;;;14.18;;
36715;SDS011;22699;51.034;3.730;2023-02-23T15:36:08;18.73;;;11.82;;
36715;SDS011;22699;51.034;3.730;2023-02-23T15:38:48;17.73;;;13.25;;
36715;SDS011;22699;51.034;3.730;2023-02-23T15:41:25;19.95;;;11.23;;
36715;SDS011;22699;51.034;3.730;2023-02-23T15:43:54;13.93;;;10.65;;
36715;SDS011;22699;51.034;3.730;2023-02-23T15:46:53;14.27;;;11.77;;
36715;SDS011;22699;51.034;3.730;2023-02-23T15:49:32;18.83;;;12.80;;
36715;SDS011;22699;51.034;3.730;2023-02-23T15:52:04;21.63;;;12.00;;
36715;SDS011;22699;51.034;3.730;2023-02-23T15:54:53;16.77;;;11.73;;
36715;SDS011;22699;51.034;3.730;2023-02-23T15:57:31;15.52;;;11.65;;
36715;SDS011;22699;51.034;3.730;2023-02-23T16:00:00;14.40;;;10.63;;
36715;SDS011;22699;51.034;3.730;2023-02-23T16:02:59;12.52;;;9.05;;
36715;SDS011;22699;51.034;3.730;2023-02-23T16:05:26;17.67;;;10.32;;
36715;SDS011;22699;51.034;3.730;2023-02-23T16:08:01;14.60;;;9.82;;
36715;SDS011;22699;51.034;3.730;2023-02-23T16:10:51;14.60;;;9.77;;
36715;SDS011;22699;51.034;3.730;2023-02-23T16:13:43;14.45;;;9.60;;
36715;SDS011;22699;51.034;3.730;2023-02-23T16:16:16;13.90;;;10.32;;
36715;SDS011;22699;51.034;3.730;2023-02-23T16:18:44;14.80;;;10.60;;
36715;SDS011;22699;51.034;3.730;2023-02-23T16:21:16;15.20;;;9.85;;
36715;SDS011;22699;51.034;3.730;2023-02-23T16:23:47;13.50;;;7.70;;
36715;SDS011;22699;51.034;3.730;2023-02-23T16:28:52;16.17;;;10.85;;
36715;SDS011;22699;51.034;3.730;2023-02-23T16:31:25;15.52;;;10.77;;
36715;SDS011;22699;51.034;3.730;2023-02-23T16:37:18;18.00;;;11.10;;
36715;SDS011;22699;51.034;3.730;2023-02-23T16:39:50;16.70;;;11.45;;
36715;SDS011;22699;51.034;3.730;2023-02-23T16:44:51;15.75;;;10.43;;
36715;SDS011;22699;51.034;3.730;2023-02-23T16:50:13;17.55;;;10.90;;
36715;SDS011;22699;51.034;3.730;2023-02-23T16:52:42;16.73;;;11.63;;
36715;SDS011;22699;51.034;3.730;2023-02-23T16:55:13;18.02;;;11.90;;
36715;SDS011;22699;51.034;3.730;2023-02-23T16:57:41;19.70;;;11.50;;
36715;SDS011;22699;51.034;3.730;2023-02-23T17:00:07;18.73;;;12.00;;
36715;SDS011;22699;51.034;3.730;2023-02-23T17:02:41;21.45;;;12.77;;
36715;SDS011;22699;51.034;3.730;2023-02-23T17:05:12;20.00;;;12.60;;
36715;SDS011;22699;51.034;3.730;2023-02-23T17:07:39;19.30;;;13.07;;
36715;SDS011;22699;51.034;3.730;2023-02-23T17:10:05;18.42;;;12.05;;
36715;SDS011;22699;51.034;3.730;2023-02-23T17:12:33;20.92;;;12.35;;
36715;SDS011;22699;51.034;3.730;2023-02-23T17:14:59;18.40;;;12.48;;
36715;SDS011;22699;51.034;3.730;2023-02-23T17:17:27;23.50;;;11.93;;
36715;SDS011;22699;51.034;3.730;2023-02-23T17:19:55;18.75;;;10.48;;
36715;SDS011;22699;51.034;3.730;2023-02-23T17:22:21;14.45;;;10.38;;
36715;SDS011;22699;51.034;3.730;2023-02-23T17:24:47;14.68;;;9.07;;
36715;SDS011;22699;51.034;3.730;2023-02-23T17:27:14;14.38;;;8.65;;
36715;SDS011;22699;51.034;3.730;2023-02-23T17:29:40;10.93;;;7.43;;